sensor_id;sensor_type;location;lat;lon;timestamp;P1;durP1;ratioP1;P2;durP2;ratioP2
1563;SDS011;775;51.958;7.976;2023-10-13T00:01:20;36.07;;;19.73;;
1563;SDS011;775;51.958;7.976;2023-10-13T00:03:47;33.67;;;17.50;;
1563;SDS011;775;51.958;7.976;2023-10-13T00:06:14;31.83;;;17.63;;
1563;SDS011;775;51.958;7.976;2023-10-13T00:08:43;30.97;;;16.73;;
1563;SDS011;775;51.958;7.976;2023-10-13T00:11:14;30.80;;;17.00;;
1563;SDS011;775;51.958;7.976;2023-10-13T00:13:44;40.23;;;18.20;;
1563;SDS011;775;51.958;7.976;2023-10-13T00:16:16;32.37;;;17.40;;
1563;SDS011;775;51.958;7.976;2023-10-13T00:18:46;31.57;;;17.40;;
1563;SDS011;775;51.958;7.976;2023-10-13T00:21:13;30.53;;;17.17;;
1563;SDS011;775;51.958;7.976;2023-10-13T00:23:45;31.13;;;17.70;;
1563;SDS011;775;51.958;7.976;2023-10-13T00:26:18;29.23;;;16.60;;
1563;SDS011;775;51.958;7.976;2023-10-13T00:28:50;29.43;;;16.47;;
1563;SDS011;775;51.958;7.976;2023-10-13T00:31:34;28.80;;;15.77;;
1563;SDS011;775;51.958;7.976;2023-10-13T00:34:03;28.87;;;15.73;;
1563;SDS011;775;51.958;7.976;2023-10-13T00:36:43;31.50;;;17.60;;
1563;SDS011;775;51.958;7.976;2023-10-13T00:39:13;31.10;;;16.20;;
1563;SDS011;775;51.958;7.976;2023-10-13T00:41:41;29.70;;;15.40;;
1563;SDS011;775;51.958;7.976;2023-10-13T00:44:23;29.70;;;16.23;;
1563;SDS011;775;51.958;7.976;2023-10-13T00:46:53;33.60;;;15.47;;
1563;SDS011;775;51.958;7.976;2023-10-13T00:49:22;29.37;;;14.80;;
1563;SDS011;775;51.958;7.976;2023-10-13T00:51:48;27.50;;;15.00;;
1563;SDS011;775;51.958;7.976;2023-10-13T00:54:16;29.30;;;14.30;;
1563;SDS011;775;51.958;7.976;2023-10-13T00:56:43;25.27;;;13.60;;
1563;SDS011;775;51.958;7.976;2023-10-13T00:59:14;27.97;;;14.30;;
1563;SDS011;775;51.958;7.976;2023-10-13T01:01:42;27.67;;;14.63;;
1563;SDS011;775;51.958;7.976;2023-10-13T01:04:10;27.90;;;13.73;;
1563;SDS011;775;51.958;7.976;2023-10-13T01:06:37;34.37;;;14.40;;
1563;SDS011;775;51.958;7.976;2023-10-13T01:09:05;27.57;;;14.47;;
1563;SDS011;775;51.958;7.976;2023-10-13T01:11:42;25.87;;;14.53;;
1563;SDS011;775;51.958;7.976;2023-10-13T01:14:08;28.37;;;13.47;;
1563;SDS011;775;51.958;7.976;2023-10-13T01:16:37;24.50;;;12.80;;
1563;SDS011;775;51.958;7.976;2023-10-13T01:19:09;25.83;;;13.17;;
1563;SDS011;775;51.958;7.976;2023-10-13T01:21:38;25.33;;;13.20;;
1563;SDS011;775;51.958;7.976;2023-10-13T01:24:07;26.43;;;13.80;;
1563;SDS011;775;51.958;7.976;2023-10-13T01:26:35;24.90;;;12.50;;
1563;SDS011;775;51.958;7.976;2023-10-13T01:29:04;21.80;;;11.83;;
1563;SDS011;775;51.958;7.976;2023-10-13T01:31:40;26.70;;;14.40;;
1563;SDS011;775;51.958;7.976;2023-10-13T01:34:11;21.97;;;10.67;;
1563;SDS011;775;51.958;7.976;2023-10-13T01:36:38;25.27;;;13.10;;
1563;SDS011;775;51.958;7.976;2023-10-13T01:39:06;25.23;;;14.17;;
1563;SDS011;775;51.958;7.976;2023-10-13T01:41:36;25.33;;;13.33;;
1563;SDS011;775;51.958;7.976;2023-10-13T01:44:04;27.33;;;12.17;;
1563;SDS011;775;51.958;7.976;2023-10-13T01:46:31;28.77;;;13.97;;
1563;SDS011;775;51.958;7.976;2023-10-13T01:48:57;26.13;;;12.20;;
1563;SDS011;775;51.958;7.976;2023-10-13T01:51:25;28.90;;;12.60;;
1563;SDS011;775;51.958;7.976;2023-10-13T01:53:52;24.70;;;11.57;;
1563;SDS011;775;51.958;7.976;2023-10-13T01:56:24;25.40;;;12.20;;
1563;SDS011;775;51.958;7.976;2023-10-13T01:58:54;23.10;;;12.43;;
1563;SDS011;775;51.958;7.976;2023-10-13T02:01:21;24.93;;;13.33;;
1563;SDS011;775;51.958;7.976;2023-10-13T02:03:54;22.80;;;10.10;;
1563;SDS011;775;51.958;7.976;2023-10-13T02:06:28;24.40;;;11.37;;
1563;SDS011;775;51.958;7.976;2023-10-13T02:08:58;26.67;;;12.27;;
1563;SDS011;775;51.958;7.976;2023-10-13T02:11:36;25.40;;;11.90;;
1563;SDS011;775;51.958;7.976;2023-10-13T02:14:03;25.80;;;12.33;;
1563;SDS011;775;51.958;7.976;2023-10-13T02:16:30;26.90;;;11.77;;
1563;SDS011;775;51.958;7.976;2023-10-13T02:18:56;23.43;;;11.70;;
1563;SDS011;775;51.958;7.976;2023-10-13T02:21:29;25.70;;;12.17;;
1563;SDS011;775;51.958;7.976;2023-10-13T02:23:56;25.83;;;12.00;;
1563;SDS011;775;51.958;7.976;2023-10-13T02:26:25;25.57;;;10.80;;
1563;SDS011;775;51.958;7.976;2023-10-13T02:28:56;25.57;;;11.60;;
1563;SDS011;775;51.958;7.976;2023-10-13T02:31:23;25.90;;;12.27;;
1563;SDS011;775;51.958;7.976;2023-10-13T02:33:50;22.40;;;10.27;;
1563;SDS011;775;51.958;7.976;2023-10-13T02:36:18;24.17;;;11.17;;
1563;SDS011;775;51.958;7.976;2023-10-13T02:38:47;22.83;;;11.23;;
1563;SDS011;775;51.958;7.976;2023-10-13T02:41:17;24.50;;;12.37;;
1563;SDS011;775;51.958;7.976;2023-10-13T02:43:45;24.97;;;11.87;;
1563;SDS011;775;51.958;7.976;2023-10-13T02:46:13;24.97;;;12.17;;
1563;SDS011;775;51.958;7.976;2023-10-13T02:48:41;25.50;;;11.50;;
1563;SDS011;775;51.958;7.976;2023-10-13T02:51:11;27.57;;;11.17;;
1563;SDS011;775;51.958;7.976;2023-10-13T02:53:41;24.37;;;10.90;;
1563;SDS011;775;51.958;7.976;2023-10-13T02:56:11;23.10;;;11.57;;
1563;SDS011;775;51.958;7.976;2023-10-13T02:58:38;27.00;;;11.37;;
1563;SDS011;775;51.958;7.976;2023-10-13T03:01:09;26.53;;;11.13;;
1563;SDS011;775;51.958;7.976;2023-10-13T03:03:44;25.70;;;11.10;;
1563;SDS011;775;51.958;7.976;2023-10-13T03:06:15;24.00;;;11.50;;
1563;SDS011;775;51.958;7.976;2023-10-13T03:08:41;24.43;;;12.63;;
1563;SDS011;775;51.958;7.976;2023-10-13T03:11:09;22.00;;;10.30;;
1563;SDS011;775;51.958;7.976;2023-10-13T03:13:36;26.03;;;10.70;;
1563;SDS011;775;51.958;7.976;2023-10-13T03:16:10;27.27;;;11.80;;
1563;SDS011;775;51.958;7.976;2023-10-13T03:18:36;23.20;;;11.20;;
1563;SDS011;775;51.958;7.976;2023-10-13T03:21:05;23.30;;;10.53;;
1563;SDS011;775;51.958;7.976;2023-10-13T03:23:32;22.10;;;10.50;;
1563;SDS011;775;51.958;7.976;2023-10-13T03:26:10;22.87;;;9.97;;
1563;SDS011;775;51.958;7.976;2023-10-13T03:28:37;24.80;;;11.50;;
1563;SDS011;775;51.958;7.976;2023-10-13T03:31:05;23.77;;;10.60;;
1563;SDS011;775;51.958;7.976;2023-10-13T03:33:32;25.53;;;10.83;;
1563;SDS011;775;51.958;7.976;2023-10-13T03:36:00;24.10;;;11.07;;
1563;SDS011;775;51.958;7.976;2023-10-13T03:38:33;23.23;;;10.67;;
1563;SDS011;775;51.958;7.976;2023-10-13T03:41:04;22.13;;;10.47;;
1563;SDS011;775;51.958;7.976;2023-10-13T03:43:43;21.13;;;10.03;;
1563;SDS011;775;51.958;7.976;2023-10-13T03:46:17;25.93;;;10.60;;
1563;SDS011;775;51.958;7.976;2023-10-13T03:48:46;22.33;;;9.60;;
1563;SDS011;775;51.958;7.976;2023-10-13T03:51:24;21.70;;;9.60;;
1563;SDS011;775;51.958;7.976;2023-10-13T03:53:57;22.43;;;8.50;;
1563;SDS011;775;51.958;7.976;2023-10-13T03:56:28;21.30;;;9.73;;
1563;SDS011;775;51.958;7.976;2023-10-13T03:59:04;22.57;;;9.30;;
1563;SDS011;775;51.958;7.976;2023-10-13T04:01:31;26.90;;;11.13;;
1563;SDS011;775;51.958;7.976;2023-10-13T04:04:09;22.80;;;10.10;;
1563;SDS011;775;51.958;7.976;2023-10-13T04:06:36;22.03;;;9.40;;
1563;SDS011;775;51.958;7.976;2023-10-13T04:09:27;22.00;;;10.43;;
1563;SDS011;775;51.958;7.976;2023-10-13T04:12:12;23.23;;;10.10;;
1563;SDS011;775;51.958;7.976;2023-10-13T04:14:47;21.93;;;9.80;;
1563;SDS011;775;51.958;7.976;2023-10-13T04:17:37;20.63;;;10.57;;
1563;SDS011;775;51.958;7.976;2023-10-13T04:20:10;21.13;;;9.33;;
1563;SDS011;775;51.958;7.976;2023-10-13T04:22:51;20.77;;;9.30;;
1563;SDS011;775;51.958;7.976;2023-10-13T04:25:46;23.33;;;11.47;;
1563;SDS011;775;51.958;7.976;2023-10-13T04:28:46;24.03;;;11.53;;
1563;SDS011;775;51.958;7.976;2023-10-13T04:31:19;23.87;;;10.80;;
1563;SDS011;775;51.958;7.976;2023-10-13T04:34:06;25.20;;;10.60;;
1563;SDS011;775;51.958;7.976;2023-10-13T04:36:40;21.87;;;11.37;;
1563;SDS011;775;51.958;7.976;2023-10-13T04:39:11;24.60;;;10.60;;
1563;SDS011;775;51.958;7.976;2023-10-13T04:41:55;22.20;;;10.10;;
1563;SDS011;775;51.958;7.976;2023-10-13T04:44:23;25.13;;;10.57;;
1563;SDS011;775;51.958;7.976;2023-10-13T04:47:04;23.57;;;10.10;;
1563;SDS011;775;51.958;7.976;2023-10-13T04:49:40;24.13;;;9.50;;
1563;SDS011;775;51.958;7.976;2023-10-13T04:52:16;21.83;;;8.60;;
1563;SDS011;775;51.958;7.976;2023-10-13T04:55:15;27.43;;;9.10;;
1563;SDS011;775;51.958;7.976;2023-10-13T04:57:50;20.40;;;9.10;;
1563;SDS011;775;51.958;7.976;2023-10-13T05:00:25;25.70;;;10.10;;
1563;SDS011;775;51.958;7.976;2023-10-13T05:03:06;22.47;;;9.57;;
1563;SDS011;775;51.958;7.976;2023-10-13T05:05:51;21.67;;;10.00;;
1563;SDS011;775;51.958;7.976;2023-10-13T05:08:38;20.63;;;9.20;;
1563;SDS011;775;51.958;7.976;2023-10-13T05:11:23;21.70;;;8.80;;
1563;SDS011;775;51.958;7.976;2023-10-13T05:14:09;22.10;;;9.57;;
1563;SDS011;775;51.958;7.976;2023-10-13T05:16:50;25.30;;;9.67;;
1563;SDS011;775;51.958;7.976;2023-10-13T05:19:35;23.63;;;9.43;;
1563;SDS011;775;51.958;7.976;2023-10-13T05:22:19;27.50;;;9.37;;
1563;SDS011;775;51.958;7.976;2023-10-13T05:25:04;24.60;;;9.57;;
1563;SDS011;775;51.958;7.976;2023-10-13T05:27:49;25.10;;;8.83;;
1563;SDS011;775;51.958;7.976;2023-10-13T05:30:35;30.23;;;9.20;;
1563;SDS011;775;51.958;7.976;2023-10-13T05:33:23;30.57;;;9.90;;
1563;SDS011;775;51.958;7.976;2023-10-13T05:36:09;27.30;;;10.33;;
1563;SDS011;775;51.958;7.976;2023-10-13T05:38:54;21.10;;;8.77;;
1563;SDS011;775;51.958;7.976;2023-10-13T05:41:39;23.23;;;8.50;;
1563;SDS011;775;51.958;7.976;2023-10-13T05:44:24;23.60;;;8.33;;
1563;SDS011;775;51.958;7.976;2023-10-13T05:47:13;25.63;;;8.80;;
1563;SDS011;775;51.958;7.976;2023-10-13T05:50:04;23.90;;;9.40;;
1563;SDS011;775;51.958;7.976;2023-10-13T05:52:38;23.83;;;8.67;;
1563;SDS011;775;51.958;7.976;2023-10-13T05:55:24;21.17;;;8.60;;
1563;SDS011;775;51.958;7.976;2023-10-13T05:58:09;24.50;;;8.40;;
1563;SDS011;775;51.958;7.976;2023-10-13T06:00:54;23.80;;;8.37;;
1563;SDS011;775;51.958;7.976;2023-10-13T06:03:40;25.07;;;8.63;;
1563;SDS011;775;51.958;7.976;2023-10-13T06:06:25;19.20;;;7.90;;
1563;SDS011;775;51.958;7.976;2023-10-13T06:09:06;20.03;;;7.73;;
1563;SDS011;775;51.958;7.976;2023-10-13T06:11:51;24.60;;;8.50;;
1563;SDS011;775;51.958;7.976;2023-10-13T06:14:36;20.80;;;7.57;;
1563;SDS011;775;51.958;7.976;2023-10-13T06:17:21;21.10;;;7.70;;
1563;SDS011;775;51.958;7.976;2023-10-13T06:20:07;22.97;;;8.00;;
1563;SDS011;775;51.958;7.976;2023-10-13T06:22:52;20.87;;;7.10;;
1563;SDS011;775;51.958;7.976;2023-10-13T06:25:49;20.90;;;7.80;;
1563;SDS011;775;51.958;7.976;2023-10-13T06:28:34;18.57;;;7.67;;
1563;SDS011;775;51.958;7.976;2023-10-13T06:31:08;20.20;;;7.40;;
1563;SDS011;775;51.958;7.976;2023-10-13T06:33:39;18.23;;;7.30;;
1563;SDS011;775;51.958;7.976;2023-10-13T06:36:11;20.60;;;7.83;;
1563;SDS011;775;51.958;7.976;2023-10-13T06:38:38;19.43;;;6.93;;
1563;SDS011;775;51.958;7.976;2023-10-13T06:41:06;19.30;;;7.93;;
1563;SDS011;775;51.958;7.976;2023-10-13T06:43:34;24.00;;;7.40;;
1563;SDS011;775;51.958;7.976;2023-10-13T06:46:04;19.50;;;6.90;;
1563;SDS011;775;51.958;7.976;2023-10-13T06:48:32;19.43;;;6.97;;
1563;SDS011;775;51.958;7.976;2023-10-13T06:51:00;19.43;;;6.50;;
1563;SDS011;775;51.958;7.976;2023-10-13T06:53:32;20.00;;;7.20;;
1563;SDS011;775;51.958;7.976;2023-10-13T06:56:05;17.77;;;7.43;;
1563;SDS011;775;51.958;7.976;2023-10-13T06:58:34;19.23;;;6.27;;
1563;SDS011;775;51.958;7.976;2023-10-13T07:01:06;19.10;;;6.60;;
1563;SDS011;775;51.958;7.976;2023-10-13T07:03:39;18.30;;;6.27;;
1563;SDS011;775;51.958;7.976;2023-10-13T07:06:07;19.40;;;6.20;;
1563;SDS011;775;51.958;7.976;2023-10-13T07:08:44;18.27;;;5.33;;
1563;SDS011;775;51.958;7.976;2023-10-13T07:11:16;24.73;;;5.97;;
1563;SDS011;775;51.958;7.976;2023-10-13T07:13:47;16.43;;;5.80;;
1563;SDS011;775;51.958;7.976;2023-10-13T07:16:17;17.00;;;5.87;;
1563;SDS011;775;51.958;7.976;2023-10-13T07:18:44;16.30;;;5.67;;
1563;SDS011;775;51.958;7.976;2023-10-13T07:21:18;19.50;;;6.60;;
1563;SDS011;775;51.958;7.976;2023-10-13T07:23:51;21.53;;;6.80;;
1563;SDS011;775;51.958;7.976;2023-10-13T07:26:33;17.80;;;5.27;;
1563;SDS011;775;51.958;7.976;2023-10-13T07:29:06;18.10;;;5.47;;
1563;SDS011;775;51.958;7.976;2023-10-13T07:31:34;21.53;;;5.80;;
1563;SDS011;775;51.958;7.976;2023-10-13T07:34:03;18.80;;;6.87;;
1563;SDS011;775;51.958;7.976;2023-10-13T07:36:37;20.73;;;5.60;;
1563;SDS011;775;51.958;7.976;2023-10-13T07:39:07;17.17;;;5.30;;
1563;SDS011;775;51.958;7.976;2023-10-13T07:41:47;19.17;;;6.33;;
1563;SDS011;775;51.958;7.976;2023-10-13T07:44:17;17.77;;;6.10;;
1563;SDS011;775;51.958;7.976;2023-10-13T07:46:45;16.70;;;5.27;;
1563;SDS011;775;51.958;7.976;2023-10-13T07:49:14;17.03;;;5.50;;
1563;SDS011;775;51.958;7.976;2023-10-13T07:51:41;15.80;;;4.70;;
1563;SDS011;775;51.958;7.976;2023-10-13T07:54:12;16.70;;;5.47;;
1563;SDS011;775;51.958;7.976;2023-10-13T07:56:47;17.60;;;5.23;;
1563;SDS011;775;51.958;7.976;2023-10-13T07:59:14;20.83;;;5.23;;
1563;SDS011;775;51.958;7.976;2023-10-13T08:01:41;19.87;;;5.17;;
1563;SDS011;775;51.958;7.976;2023-10-13T08:04:08;17.90;;;6.00;;
1563;SDS011;775;51.958;7.976;2023-10-13T08:06:37;17.70;;;5.13;;
1563;SDS011;775;51.958;7.976;2023-10-13T08:09:05;19.10;;;5.10;;
1563;SDS011;775;51.958;7.976;2023-10-13T08:11:35;19.23;;;5.30;;
1563;SDS011;775;51.958;7.976;2023-10-13T08:14:04;18.10;;;4.90;;
1563;SDS011;775;51.958;7.976;2023-10-13T08:16:47;16.73;;;5.07;;
1563;SDS011;775;51.958;7.976;2023-10-13T08:19:25;15.93;;;5.30;;
1563;SDS011;775;51.958;7.976;2023-10-13T08:21:53;17.93;;;4.90;;
1563;SDS011;775;51.958;7.976;2023-10-13T08:24:24;18.60;;;4.17;;
1563;SDS011;775;51.958;7.976;2023-10-13T08:26:55;19.93;;;4.60;;
1563;SDS011;775;51.958;7.976;2023-10-13T08:29:40;19.40;;;4.83;;
1563;SDS011;775;51.958;7.976;2023-10-13T08:32:33;17.50;;;4.80;;
1563;SDS011;775;51.958;7.976;2023-10-13T08:35:09;16.80;;;4.47;;
1563;SDS011;775;51.958;7.976;2023-10-13T08:37:47;17.63;;;4.97;;
1563;SDS011;775;51.958;7.976;2023-10-13T08:40:26;23.77;;;4.77;;
1563;SDS011;775;51.958;7.976;2023-10-13T08:43:17;21.13;;;5.07;;
1563;SDS011;775;51.958;7.976;2023-10-13T08:45:44;19.13;;;5.40;;
1563;SDS011;775;51.958;7.976;2023-10-13T08:48:24;16.50;;;4.73;;
1563;SDS011;775;51.958;7.976;2023-10-13T08:50:56;18.50;;;5.07;;
1563;SDS011;775;51.958;7.976;2023-10-13T08:53:31;19.27;;;5.30;;
1563;SDS011;775;51.958;7.976;2023-10-13T08:56:09;18.70;;;5.80;;
1563;SDS011;775;51.958;7.976;2023-10-13T08:58:41;23.77;;;5.33;;
1563;SDS011;775;51.958;7.976;2023-10-13T09:01:37;16.83;;;5.63;;
1563;SDS011;775;51.958;7.976;2023-10-13T09:04:11;18.33;;;6.70;;
1563;SDS011;775;51.958;7.976;2023-10-13T09:06:56;17.90;;;5.40;;
1563;SDS011;775;51.958;7.976;2023-10-13T09:09:44;17.10;;;5.43;;
1563;SDS011;775;51.958;7.976;2023-10-13T09:12:25;21.10;;;6.30;;
1563;SDS011;775;51.958;7.976;2023-10-13T09:15:03;17.30;;;5.30;;
1563;SDS011;775;51.958;7.976;2023-10-13T09:17:30;22.23;;;6.30;;
1563;SDS011;775;51.958;7.976;2023-10-13T09:20:00;20.00;;;5.40;;
1563;SDS011;775;51.958;7.976;2023-10-13T09:22:49;18.23;;;5.90;;
1563;SDS011;775;51.958;7.976;2023-10-13T09:25:21;21.10;;;5.17;;
1563;SDS011;775;51.958;7.976;2023-10-13T09:27:49;22.83;;;6.23;;
1563;SDS011;775;51.958;7.976;2023-10-13T09:30:20;18.53;;;5.40;;
1563;SDS011;775;51.958;7.976;2023-10-13T09:32:58;25.27;;;5.90;;
1563;SDS011;775;51.958;7.976;2023-10-13T09:35:27;19.20;;;5.67;;
1563;SDS011;775;51.958;7.976;2023-10-13T09:37:56;19.93;;;6.20;;
1563;SDS011;775;51.958;7.976;2023-10-13T09:40:24;24.00;;;5.77;;
1563;SDS011;775;51.958;7.976;2023-10-13T09:42:52;16.83;;;6.10;;
1563;SDS011;775;51.958;7.976;2023-10-13T09:45:23;17.60;;;5.50;;
1563;SDS011;775;51.958;7.976;2023-10-13T09:47:52;22.93;;;5.60;;
1563;SDS011;775;51.958;7.976;2023-10-13T09:50:22;20.87;;;6.13;;
1563;SDS011;775;51.958;7.976;2023-10-13T09:52:50;21.20;;;5.23;;
1563;SDS011;775;51.958;7.976;2023-10-13T09:55:19;22.00;;;5.77;;
1563;SDS011;775;51.958;7.976;2023-10-13T09:57:51;17.40;;;6.17;;
1563;SDS011;775;51.958;7.976;2023-10-13T10:00:24;18.13;;;5.80;;
1563;SDS011;775;51.958;7.976;2023-10-13T10:03:11;19.20;;;5.30;;
1563;SDS011;775;51.958;7.976;2023-10-13T10:05:41;20.40;;;6.13;;
1563;SDS011;775;51.958;7.976;2023-10-13T10:08:22;20.67;;;6.60;;
1563;SDS011;775;51.958;7.976;2023-10-13T10:10:59;18.77;;;5.70;;
1563;SDS011;775;51.958;7.976;2023-10-13T10:13:31;23.97;;;6.03;;
1563;SDS011;775;51.958;7.976;2023-10-13T10:16:01;22.20;;;6.70;;
1563;SDS011;775;51.958;7.976;2023-10-13T10:18:34;23.03;;;6.80;;
1563;SDS011;775;51.958;7.976;2023-10-13T10:21:04;22.40;;;6.33;;
1563;SDS011;775;51.958;7.976;2023-10-13T10:23:33;25.47;;;6.40;;
1563;SDS011;775;51.958;7.976;2023-10-13T10:26:10;19.50;;;6.10;;
1563;SDS011;775;51.958;7.976;2023-10-13T10:28:39;21.70;;;5.97;;
1563;SDS011;775;51.958;7.976;2023-10-13T10:31:08;21.10;;;6.23;;
1563;SDS011;775;51.958;7.976;2023-10-13T10:33:37;24.07;;;7.00;;
1563;SDS011;775;51.958;7.976;2023-10-13T10:36:05;17.93;;;5.60;;
1563;SDS011;775;51.958;7.976;2023-10-13T10:38:37;18.50;;;5.07;;
1563;SDS011;775;51.958;7.976;2023-10-13T10:41:05;18.30;;;5.60;;
1563;SDS011;775;51.958;7.976;2023-10-13T10:43:36;22.17;;;5.87;;
1563;SDS011;775;51.958;7.976;2023-10-13T10:46:09;20.70;;;5.00;;
1563;SDS011;775;51.958;7.976;2023-10-13T10:48:37;21.90;;;6.40;;
1563;SDS011;775;51.958;7.976;2023-10-13T10:51:08;19.93;;;5.83;;
1563;SDS011;775;51.958;7.976;2023-10-13T10:53:46;23.07;;;6.80;;
1563;SDS011;775;51.958;7.976;2023-10-13T10:56:14;21.00;;;6.20;;
1563;SDS011;775;51.958;7.976;2023-10-13T10:58:50;22.70;;;6.67;;
1563;SDS011;775;51.958;7.976;2023-10-13T11:01:21;21.00;;;5.77;;
1563;SDS011;775;51.958;7.976;2023-10-13T11:03:55;21.53;;;6.30;;
1563;SDS011;775;51.958;7.976;2023-10-13T11:06:33;18.73;;;5.67;;
1563;SDS011;775;51.958;7.976;2023-10-13T11:09:04;20.87;;;6.20;;
1563;SDS011;775;51.958;7.976;2023-10-13T11:11:43;20.63;;;5.90;;
1563;SDS011;775;51.958;7.976;2023-10-13T11:14:19;21.23;;;5.80;;
1563;SDS011;775;51.958;7.976;2023-10-13T11:16:49;19.40;;;6.40;;
1563;SDS011;775;51.958;7.976;2023-10-13T11:19:19;19.07;;;5.70;;
1563;SDS011;775;51.958;7.976;2023-10-13T11:21:53;21.17;;;5.60;;
1563;SDS011;775;51.958;7.976;2023-10-13T11:24:20;20.20;;;6.13;;
1563;SDS011;775;51.958;7.976;2023-10-13T11:26:48;21.63;;;6.23;;
1563;SDS011;775;51.958;7.976;2023-10-13T11:29:16;20.10;;;5.20;;
1563;SDS011;775;51.958;7.976;2023-10-13T11:31:45;27.03;;;7.00;;
1563;SDS011;775;51.958;7.976;2023-10-13T11:34:20;21.17;;;5.83;;
1563;SDS011;775;51.958;7.976;2023-10-13T11:36:47;19.47;;;5.70;;
1563;SDS011;775;51.958;7.976;2023-10-13T11:39:14;20.03;;;5.93;;
1563;SDS011;775;51.958;7.976;2023-10-13T11:41:48;19.87;;;5.57;;
1563;SDS011;775;51.958;7.976;2023-10-13T11:44:20;19.47;;;5.90;;
1563;SDS011;775;51.958;7.976;2023-10-13T11:46:49;23.20;;;5.73;;
1563;SDS011;775;51.958;7.976;2023-10-13T11:49:23;24.20;;;6.40;;
1563;SDS011;775;51.958;7.976;2023-10-13T11:52:06;19.77;;;6.10;;
1563;SDS011;775;51.958;7.976;2023-10-13T11:54:43;21.93;;;5.20;;
1563;SDS011;775;51.958;7.976;2023-10-13T11:57:12;22.63;;;6.27;;
1563;SDS011;775;51.958;7.976;2023-10-13T11:59:41;19.53;;;5.40;;
1563;SDS011;775;51.958;7.976;2023-10-13T12:02:19;24.50;;;6.10;;
1563;SDS011;775;51.958;7.976;2023-10-13T12:05:05;19.67;;;6.13;;
1563;SDS011;775;51.958;7.976;2023-10-13T12:07:41;21.83;;;6.13;;
1563;SDS011;775;51.958;7.976;2023-10-13T12:10:13;19.30;;;6.63;;
1563;SDS011;775;51.958;7.976;2023-10-13T12:12:58;22.30;;;6.33;;
1563;SDS011;775;51.958;7.976;2023-10-13T12:15:30;25.13;;;6.13;;
1563;SDS011;775;51.958;7.976;2023-10-13T12:18:02;23.10;;;5.80;;
1563;SDS011;775;51.958;7.976;2023-10-13T12:20:31;19.80;;;7.50;;
1563;SDS011;775;51.958;7.976;2023-10-13T12:22:59;20.00;;;6.40;;
1563;SDS011;775;51.958;7.976;2023-10-13T12:25:36;24.93;;;6.93;;
1563;SDS011;775;51.958;7.976;2023-10-13T12:28:19;24.83;;;6.87;;
1563;SDS011;775;51.958;7.976;2023-10-13T12:30:48;18.63;;;5.90;;
1563;SDS011;775;51.958;7.976;2023-10-13T12:33:17;24.63;;;6.77;;
1563;SDS011;775;51.958;7.976;2023-10-13T12:35:55;19.90;;;6.50;;
1563;SDS011;775;51.958;7.976;2023-10-13T12:38:32;21.80;;;6.50;;
1563;SDS011;775;51.958;7.976;2023-10-13T12:41:31;18.63;;;6.03;;
1563;SDS011;775;51.958;7.976;2023-10-13T12:44:16;34.80;;;6.10;;
1563;SDS011;775;51.958;7.976;2023-10-13T12:47:01;22.60;;;5.97;;
1563;SDS011;775;51.958;7.976;2023-10-13T12:49:46;20.77;;;6.13;;
1563;SDS011;775;51.958;7.976;2023-10-13T12:52:24;19.70;;;5.87;;
1563;SDS011;775;51.958;7.976;2023-10-13T12:54:51;21.43;;;6.10;;
1563;SDS011;775;51.958;7.976;2023-10-13T12:57:31;22.60;;;6.50;;
1563;SDS011;775;51.958;7.976;2023-10-13T12:59:58;20.30;;;6.20;;
1563;SDS011;775;51.958;7.976;2023-10-13T13:02:26;28.03;;;7.17;;
1563;SDS011;775;51.958;7.976;2023-10-13T13:04:54;21.97;;;5.80;;
1563;SDS011;775;51.958;7.976;2023-10-13T13:07:32;23.10;;;7.90;;
1563;SDS011;775;51.958;7.976;2023-10-13T13:10:08;21.83;;;6.80;;
1563;SDS011;775;51.958;7.976;2023-10-13T13:12:36;22.27;;;6.63;;
1563;SDS011;775;51.958;7.976;2023-10-13T13:15:04;20.10;;;6.03;;
1563;SDS011;775;51.958;7.976;2023-10-13T13:17:33;26.67;;;6.23;;
1563;SDS011;775;51.958;7.976;2023-10-13T13:20:01;22.67;;;5.37;;
1563;SDS011;775;51.958;7.976;2023-10-13T13:22:37;18.70;;;5.90;;
1563;SDS011;775;51.958;7.976;2023-10-13T13:25:04;26.60;;;5.70;;
1563;SDS011;775;51.958;7.976;2023-10-13T13:27:34;18.40;;;5.20;;
1563;SDS011;775;51.958;7.976;2023-10-13T13:30:02;22.37;;;5.67;;
1563;SDS011;775;51.958;7.976;2023-10-13T13:32:37;22.40;;;6.67;;
1563;SDS011;775;51.958;7.976;2023-10-13T13:35:06;23.57;;;5.87;;
1563;SDS011;775;51.958;7.976;2023-10-13T13:37:34;21.47;;;5.80;;
1563;SDS011;775;51.958;7.976;2023-10-13T13:40:05;26.50;;;6.07;;
1563;SDS011;775;51.958;7.976;2023-10-13T13:42:39;22.63;;;5.97;;
1563;SDS011;775;51.958;7.976;2023-10-13T13:45:11;18.80;;;6.37;;
1563;SDS011;775;51.958;7.976;2023-10-13T13:47:46;21.77;;;6.10;;
1563;SDS011;775;51.958;7.976;2023-10-13T13:50:18;20.43;;;6.13;;
1563;SDS011;775;51.958;7.976;2023-10-13T13:52:49;23.90;;;6.90;;
1563;SDS011;775;51.958;7.976;2023-10-13T13:55:19;22.30;;;6.27;;
1563;SDS011;775;51.958;7.976;2023-10-13T13:57:46;19.97;;;5.70;;
1563;SDS011;775;51.958;7.976;2023-10-13T14:00:15;25.50;;;6.37;;
1563;SDS011;775;51.958;7.976;2023-10-13T14:02:48;18.30;;;5.80;;
1563;SDS011;775;51.958;7.976;2023-10-13T14:05:15;22.27;;;6.33;;
1563;SDS011;775;51.958;7.976;2023-10-13T14:07:42;22.50;;;6.00;;
1563;SDS011;775;51.958;7.976;2023-10-13T14:10:14;22.10;;;5.80;;
1563;SDS011;775;51.958;7.976;2023-10-13T14:12:57;22.43;;;6.43;;
1563;SDS011;775;51.958;7.976;2023-10-13T14:15:31;22.37;;;7.00;;
1563;SDS011;775;51.958;7.976;2023-10-13T14:18:04;21.03;;;6.17;;
1563;SDS011;775;51.958;7.976;2023-10-13T14:20:32;19.60;;;6.37;;
1563;SDS011;775;51.958;7.976;2023-10-13T14:23:04;23.17;;;5.70;;
1563;SDS011;775;51.958;7.976;2023-10-13T14:25:32;22.47;;;6.23;;
1563;SDS011;775;51.958;7.976;2023-10-13T14:28:04;20.07;;;5.60;;
1563;SDS011;775;51.958;7.976;2023-10-13T14:30:31;19.00;;;6.60;;
1563;SDS011;775;51.958;7.976;2023-10-13T14:32:59;18.80;;;5.07;;
1563;SDS011;775;51.958;7.976;2023-10-13T14:35:26;20.30;;;6.60;;
1563;SDS011;775;51.958;7.976;2023-10-13T14:37:54;22.73;;;5.30;;
1563;SDS011;775;51.958;7.976;2023-10-13T14:40:21;22.13;;;5.70;;
1563;SDS011;775;51.958;7.976;2023-10-13T14:42:48;24.20;;;5.70;;
1563;SDS011;775;51.958;7.976;2023-10-13T14:45:17;20.13;;;5.40;;
1563;SDS011;775;51.958;7.976;2023-10-13T14:47:44;25.77;;;5.87;;
1563;SDS011;775;51.958;7.976;2023-10-13T14:50:11;24.87;;;6.30;;
1563;SDS011;775;51.958;7.976;2023-10-13T14:52:44;21.00;;;7.67;;
1563;SDS011;775;51.958;7.976;2023-10-13T14:55:11;19.97;;;5.40;;
1563;SDS011;775;51.958;7.976;2023-10-13T14:57:45;20.70;;;5.70;;
1563;SDS011;775;51.958;7.976;2023-10-13T15:00:12;23.33;;;5.60;;
1563;SDS011;775;51.958;7.976;2023-10-13T15:02:41;21.00;;;5.37;;
1563;SDS011;775;51.958;7.976;2023-10-13T15:05:08;22.37;;;5.70;;
1563;SDS011;775;51.958;7.976;2023-10-13T15:07:41;29.10;;;5.83;;
1563;SDS011;775;51.958;7.976;2023-10-13T15:10:10;19.60;;;5.00;;
1563;SDS011;775;51.958;7.976;2023-10-13T15:12:39;19.40;;;5.17;;
1563;SDS011;775;51.958;7.976;2023-10-13T15:15:07;23.57;;;6.60;;
1563;SDS011;775;51.958;7.976;2023-10-13T15:17:38;20.90;;;4.90;;
1563;SDS011;775;51.958;7.976;2023-10-13T15:20:07;17.33;;;4.37;;
1563;SDS011;775;51.958;7.976;2023-10-13T15:22:36;22.60;;;5.70;;
1563;SDS011;775;51.958;7.976;2023-10-13T15:25:04;23.13;;;6.00;;
1563;SDS011;775;51.958;7.976;2023-10-13T15:27:42;19.40;;;5.00;;
1563;SDS011;775;51.958;7.976;2023-10-13T15:30:15;19.50;;;5.70;;
1563;SDS011;775;51.958;7.976;2023-10-13T15:32:51;23.03;;;5.83;;
1563;SDS011;775;51.958;7.976;2023-10-13T15:35:20;18.27;;;4.90;;
1563;SDS011;775;51.958;7.976;2023-10-13T15:37:53;23.03;;;5.77;;
1563;SDS011;775;51.958;7.976;2023-10-13T15:40:20;23.20;;;5.60;;
1563;SDS011;775;51.958;7.976;2023-10-13T15:42:49;20.70;;;5.37;;
1563;SDS011;775;51.958;7.976;2023-10-13T15:45:16;20.20;;;4.90;;
1563;SDS011;775;51.958;7.976;2023-10-13T15:47:43;20.70;;;5.57;;
1563;SDS011;775;51.958;7.976;2023-10-13T15:50:11;21.00;;;5.17;;